Time;durP1;ratioP1;P1;durP2;ratioP2;P2;SDS_P1;SDS_P2;PMS_P1;PMS_P2;Temp;Humidity;BMP_temperature;BMP_pressure;BME280_temperature;BME280_humidity;BME280_pressure;Samples;Min_cycle;Max_cycle;Signal;HPM_P1;HPM_P2
2021/11/06 00:01:21;;;;;;;4.03;2.55;;;;;;;;;;5028466;28;20057;-91
2021/11/06 00:03:47;;;;;;;4.05;2.30;;;;;;;;;;5029516;28;20053;-86
2021/11/06 00:06:13;;;;;;;3.88;2.65;;;;;;;;;;5029451;28;20029;-85
2021/11/06 00:08:39;;;;;;;6.80;2.80;;;;;;;;;;5028295;28;20048;-88
2021/11/06 00:11:05;;;;;;;5.65;3.40;;;;;;;;;;5029271;28;20029;-86
2021/11/06 00:13:31;;;;;;;4.13;2.53;;;;;;;;;;5029762;28;20393;-85
2021/11/06 00:15:58;;;;;;;4.45;2.47;;;;;;;;;;5029636;28;20081;-88
2021/11/06 00:18:24;;;;;;;6.45;2.83;;;;;;;;;;5029281;28;20109;-88
2021/11/06 00:20:50;;;;;;;4.18;2.60;;;;;;;;;;5029386;28;20021;-87
2021/11/06 00:23:16;;;;;;;4.60;2.38;;;;;;;;;;5029205;28;20036;-86
2021/11/06 00:25:42;;;;;;;4.05;2.47;;;;;;;;;;5029234;28;20530;-85
2021/11/06 00:28:08;;;;;;;4.65;2.78;;;;;;;;;;5028993;28;20032;-84
2021/11/06 00:30:34;;;;;;;3.58;2.30;;;;;;;;;;5028263;28;20017;-86
2021/11/06 00:33:00;;;;;;;4.68;2.55;;;;;;;;;;5029201;28;20034;-85
2021/11/06 00:35:26;;;;;;;4.85;2.70;;;;;;;;;;5027353;28;20025;-81
2021/11/06 00:37:53;;;;;;;3.92;2.42;;;;;;;;;;5028595;28;20034;-86
2021/11/06 00:40:19;;;;;;;4.60;2.65;;;;;;;;;;5028539;28;20060;-83
2021/11/06 00:42:45;;;;;;;4.03;2.60;;;;;;;;;;5029127;28;20105;-83
2021/11/06 00:45:12;;;;;;;3.85;2.20;;;;;;;;;;5028856;28;20025;-85
2021/11/06 00:47:38;;;;;;;3.78;2.42;;;;;;;;;;5029024;28;20054;-83
2021/11/06 00:50:06;;;;;;;4.13;2.50;;;;;;;;;;5028945;28;20026;-86
2021/11/06 00:52:32;;;;;;;3.85;2.40;;;;;;;;;;5027863;28;20041;-85
2021/11/06 00:54:58;;;;;;;3.88;2.05;;;;;;;;;;5027716;28;20047;-83
2021/11/06 00:57:24;;;;;;;4.32;2.08;;;;;;;;;;5028461;28;20022;-87
2021/11/06 00:59:50;;;;;;;4.25;2.45;;;;;;;;;;5028661;28;20032;-84
2021/11/06 01:02:16;;;;;;;3.58;2.03;;;;;;;;;;5028335;28;20025;-84
2021/11/06 01:04:42;;;;;;;4.07;2.10;;;;;;;;;;5027396;28;20439;-88
2021/11/06 01:07:08;;;;;;;4.57;2.63;;;;;;;;;;5028326;28;20437;-88
2021/11/06 01:09:34;;;;;;;2.75;2.00;;;;;;;;;;5028985;28;20057;-87
2021/11/06 01:12:00;;;;;;;5.53;2.50;;;;;;;;;;5028762;28;20057;-81
2021/11/06 01:14:26;;;;;;;3.63;2.00;;;;;;;;;;5028324;28;20025;-83
2021/11/06 01:16:52;;;;;;;4.47;2.10;;;;;;;;;;5028427;28;20033;-80
2021/11/06 01:19:18;;;;;;;4.18;2.20;;;;;;;;;;5028262;28;20040;-79
2021/11/06 01:21:44;;;;;;;4.03;2.30;;;;;;;;;;5028666;28;20032;-80
2021/11/06 01:24:11;;;;;;;4.45;2.15;;;;;;;;;;5028428;28;20021;-82
2021/11/06 01:26:37;;;;;;;2.65;1.88;;;;;;;;;;5028655;28;20025;-81
2021/11/06 01:29:03;;;;;;;3.50;2.35;;;;;;;;;;5028891;28;20049;-83
2021/11/06 01:31:29;;;;;;;4.40;2.47;;;;;;;;;;5027992;28;20034;-83
2021/11/06 01:33:55;;;;;;;5.68;2.22;;;;;;;;;;5028484;28;20032;-80
2021/11/06 01:36:21;;;;;;;3.95;2.15;;;;;;;;;;5028280;28;20419;-83
2021/11/06 01:38:47;;;;;;;2.88;1.75;;;;;;;;;;5028393;28;20021;-81
2021/11/06 01:41:13;;;;;;;3.90;1.95;;;;;;;;;;5027889;28;20026;-79
2021/11/06 01:43:40;;;;;;;3.55;1.90;;;;;;;;;;5028069;28;20033;-84
2021/11/06 01:46:07;;;;;;;3.90;1.90;;;;;;;;;;5027926;28;20546;-80
2021/11/06 01:48:33;;;;;;;5.30;1.83;;;;;;;;;;5028390;28;20032;-80
2021/11/06 01:51:00;;;;;;;3.75;2.03;;;;;;;;;;5013251;28;20394;-79
2021/11/06 01:53:27;;;;;;;3.40;1.63;;;;;;;;;;5031329;28;20061;-84
2021/11/06 01:55:54;;;;;;;5.35;2.53;;;;;;;;;;5031668;28;20021;-80
2021/11/06 01:58:21;;;;;;;2.88;1.83;;;;;;;;;;5031193;28;20496;-80
2021/11/06 02:00:47;;;;;;;3.92;1.88;;;;;;;;;;5031530;28;20018;-81
2021/11/06 02:03:14;;;;;;;3.05;1.80;;;;;;;;;;5031233;28;20026;-81
2021/11/06 02:05:41;;;;;;;4.03;2.35;;;;;;;;;;5031684;28;20045;-79
2021/11/06 02:08:07;;;;;;;5.15;2.08;;;;;;;;;;5030037;28;20034;-80
2021/11/06 02:10:33;;;;;;;3.40;1.90;;;;;;;;;;5031720;28;20423;-81
2021/11/06 02:12:59;;;;;;;4.63;2.28;;;;;;;;;;5031452;28;20059;-82
2021/11/06 02:15:25;;;;;;;2.75;1.63;;;;;;;;;;5030918;28;20470;-80
2021/11/06 02:17:52;;;;;;;3.67;2.05;;;;;;;;;;5031366;28;20090;-80
2021/11/06 02:20:19;;;;;;;3.50;1.77;;;;;;;;;;5031072;28;20538;-82
2021/11/06 02:22:45;;;;;;;3.55;1.70;;;;;;;;;;5029774;28;20036;-80
2021/11/06 02:25:12;;;;;;;2.72;1.60;;;;;;;;;;5029641;28;20025;-80
2021/11/06 02:27:38;;;;;;;4.03;1.70;;;;;;;;;;5031104;28;20041;-80
2021/11/06 02:30:06;;;;;;;3.55;2.10;;;;;;;;;;5031125;28;20512;-80
2021/11/06 02:32:32;;;;;;;4.63;2.08;;;;;;;;;;5031284;28;20036;-80
2021/11/06 02:34:58;;;;;;;3.50;1.75;;;;;;;;;;5031115;28;20109;-80
2021/11/06 02:37:24;;;;;;;3.53;1.70;;;;;;;;;;5030819;28;20057;-79
2021/11/06 02:39:50;;;;;;;2.78;1.55;;;;;;;;;;5029398;28;20527;-80
2021/11/06 02:42:17;;;;;;;4.43;2.00;;;;;;;;;;5030795;28;20029;-79
2021/11/06 02:44:43;;;;;;;2.80;1.60;;;;;;;;;;5029514;28;20022;-80
2021/11/06 02:47:09;;;;;;;3.08;1.77;;;;;;;;;;5030542;28;20037;-80
2021/11/06 02:49:35;;;;;;;5.55;2.17;;;;;;;;;;5030996;28;20018;-88
2021/11/06 02:52:01;;;;;;;4.03;2.17;;;;;;;;;;5030850;28;20128;-82
2021/11/06 02:54:27;;;;;;;3.13;1.70;;;;;;;;;;5030525;28;20029;-81
2021/11/06 02:56:53;;;;;;;3.25;1.60;;;;;;;;;;5030466;28;20029;-83
2021/11/06 02:59:19;;;;;;;3.20;1.70;;;;;;;;;;5030616;28;20056;-84
2021/11/06 03:01:46;;;;;;;3.25;1.45;;;;;;;;;;5030011;28;20065;-84
2021/11/06 03:04:12;;;;;;;3.72;1.52;;;;;;;;;;5030527;28;20022;-80
2021/11/06 03:06:39;;;;;;;4.30;1.60;;;;;;;;;;5030542;28;20036;-78
2021/11/06 03:09:06;;;;;;;4.20;2.00;;;;;;;;;;5030359;28;20018;-85
2021/11/06 03:11:32;;;;;;;3.28;1.77;;;;;;;;;;5030518;28;20184;-80
2021/11/06 03:13:58;;;;;;;2.42;1.60;;;;;;;;;;5030463;28;20287;-77
2021/11/06 03:16:25;;;;;;;3.30;1.92;;;;;;;;;;5030254;28;20029;-80
2021/11/06 03:18:50;;;;;;;2.75;1.52;;;;;;;;;;5030340;28;20521;-83
2021/11/06 03:21:20;;;;;;;2.65;1.50;;;;;;;;;;5029910;28;20127;-81
2021/11/06 03:23:46;;;;;;;3.05;1.70;;;;;;;;;;5030152;28;20026;-79
2021/11/06 03:26:13;;;;;;;4.75;2.05;;;;;;;;;;5030104;28;20090;-81
2021/11/06 03:28:39;;;;;;;3.25;1.80;;;;;;;;;;5030218;28;20085;-82
2021/11/06 03:31:05;;;;;;;3.25;1.63;;;;;;;;;;5028684;28;20132;-88
2021/11/06 03:33:32;;;;;;;2.85;1.55;;;;;;;;;;5030379;28;20022;-81
2021/11/06 03:35:58;;;;;;;3.05;1.70;;;;;;;;;;5029988;28;20055;-82
2021/11/06 03:38:24;;;;;;;2.80;1.50;;;;;;;;;;5029665;28;20082;-80
2021/11/06 03:40:50;;;;;;;3.13;1.65;;;;;;;;;;5028373;28;20401;-86
2021/11/06 03:43:16;;;;;;;3.33;1.80;;;;;;;;;;5029770;28;20027;-80
2021/11/06 03:45:42;;;;;;;4.20;1.73;;;;;;;;;;5029987;28;20037;-79
2021/11/06 03:48:08;;;;;;;2.63;1.52;;;;;;;;;;5029838;28;20104;-79
2021/11/06 03:50:34;;;;;;;3.17;1.60;;;;;;;;;;5029988;28;20560;-83
2021/11/06 03:53:01;;;;;;;2.17;1.15;;;;;;;;;;5028916;28;20033;-83
2021/11/06 03:55:27;;;;;;;2.85;1.40;;;;;;;;;;5028067;28;20055;-81
2021/11/06 03:57:53;;;;;;;2.10;1.25;;;;;;;;;;5029764;28;20049;-79
2021/11/06 04:00:20;;;;;;;2.10;1.17;;;;;;;;;;5028072;28;20086;-79
2021/11/06 04:02:47;;;;;;;2.90;1.33;;;;;;;;;;5029612;28;20064;-79
2021/11/06 04:05:13;;;;;;;2.80;1.58;;;;;;;;;;5029315;28;20018;-80
2021/11/06 04:07:39;;;;;;;2.50;1.33;;;;;;;;;;5029615;28;20037;-80
2021/11/06 04:10:06;;;;;;;2.70;1.52;;;;;;;;;;5029004;28;20022;-87
2021/11/06 04:12:32;;;;;;;2.63;1.50;;;;;;;;;;5029452;28;20037;-79
2021/11/06 04:14:58;;;;;;;3.92;1.75;;;;;;;;;;5028988;28;20401;-80
2021/11/06 04:17:24;;;;;;;4.07;1.50;;;;;;;;;;5029195;28;20029;-80
2021/11/06 04:19:50;;;;;;;3.22;1.40;;;;;;;;;;5027959;28;20029;-79
2021/11/06 04:22:16;;;;;;;2.60;1.27;;;;;;;;;;5027965;28;20033;-80
2021/11/06 04:24:42;;;;;;;2.38;1.55;;;;;;;;;;5030403;28;20413;-81
2021/11/06 04:27:08;;;;;;;1.80;1.02;;;;;;;;;;5049006;28;20035;-81
2021/11/06 04:29:37;;;;;;;2.72;1.30;;;;;;;;;;5049051;28;20021;-80
2021/11/06 04:32:04;;;;;;;2.28;1.40;;;;;;;;;;5049286;28;20397;-82
2021/11/06 04:34:30;;;;;;;2.35;1.42;;;;;;;;;;5049050;28;20022;-81
2021/11/06 04:36:56;;;;;;;3.20;1.40;;;;;;;;;;5048975;28;20408;-81
2021/11/06 04:39:22;;;;;;;2.42;1.48;;;;;;;;;;5047310;28;20025;-84
2021/11/06 04:41:48;;;;;;;2.83;1.42;;;;;;;;;;5048632;28;20033;-79
2021/11/06 04:44:14;;;;;;;1.92;1.10;;;;;;;;;;5048859;28;20521;-81
2021/11/06 04:46:40;;;;;;;1.70;1.20;;;;;;;;;;5048573;28;20123;-80
2021/11/06 04:49:06;;;;;;;2.17;1.50;;;;;;;;;;5048781;28;20018;-81
2021/11/06 04:51:32;;;;;;;4.30;1.70;;;;;;;;;;5048420;28;20185;-84
2021/11/06 04:53:58;;;;;;;2.25;1.50;;;;;;;;;;5048704;28;20028;-79
2021/11/06 04:56:24;;;;;;;2.70;1.45;;;;;;;;;;5048709;28;20029;-80
2021/11/06 04:58:50;;;;;;;3.05;1.40;;;;;;;;;;5048309;28;20025;-79
2021/11/06 05:01:17;;;;;;;3.78;1.50;;;;;;;;;;5047046;28;20031;-80
2021/11/06 05:03:43;;;;;;;3.60;1.88;;;;;;;;;;5048141;28;20013;-84
2021/11/06 05:06:09;;;;;;;2.92;1.38;;;;;;;;;;5047210;28;20032;-79
2021/11/06 05:08:35;;;;;;;2.45;1.27;;;;;;;;;;5048293;28;20077;-81
2021/11/06 05:11:02;;;;;;;2.42;1.30;;;;;;;;;;5048671;28;20037;-80
2021/11/06 05:13:28;;;;;;;1.88;1.02;;;;;;;;;;5048272;28;20021;-80
2021/11/06 05:15:54;;;;;;;1.95;1.20;;;;;;;;;;5047017;28;20515;-82
2021/11/06 05:18:20;;;;;;;2.22;1.30;;;;;;;;;;5047213;28;20033;-82
2021/11/06 05:20:47;;;;;;;6.20;1.45;;;;;;;;;;5048127;28;20017;-82
2021/11/06 05:23:14;;;;;;;2.80;1.50;;;;;;;;;;5047018;28;20032;-82
2021/11/06 05:25:40;;;;;;;2.40;1.60;;;;;;;;;;5047669;28;20032;-80
2021/11/06 05:28:06;;;;;;;3.08;1.40;;;;;;;;;;5048515;28;20433;-80
2021/11/06 05:30:33;;;;;;;3.42;1.90;;;;;;;;;;5048183;28;20085;-82
2021/11/06 05:32:59;;;;;;;3.83;1.38;;;;;;;;;;5048033;28;20114;-79
2021/11/06 05:35:25;;;;;;;3.17;1.40;;;;;;;;;;5048105;28;20026;-80
2021/11/06 05:37:51;;;;;;;3.15;1.42;;;;;;;;;;5047851;28;20104;-79
2021/11/06 05:40:17;;;;;;;2.20;1.30;;;;;;;;;;5048028;28;20049;-80
2021/11/06 05:42:43;;;;;;;2.83;1.50;;;;;;;;;;5047685;28;20074;-79
2021/11/06 05:45:09;;;;;;;2.38;1.50;;;;;;;;;;5046812;28;20025;-80
2021/11/06 05:47:36;;;;;;;2.83;1.42;;;;;;;;;;5047966;28;20072;-81
2021/11/06 05:50:03;;;;;;;2.42;1.40;;;;;;;;;;5047970;28;20025;-83
2021/11/06 05:52:29;;;;;;;3.15;1.48;;;;;;;;;;5047528;28;20083;-82
2021/11/06 05:54:55;;;;;;;4.72;1.70;;;;;;;;;;5046515;28;20025;-84
2021/11/06 05:57:21;;;;;;;2.28;1.35;;;;;;;;;;5047888;28;20395;-79
2021/11/06 05:59:47;;;;;;;3.03;1.48;;;;;;;;;;5047388;28;20048;-81
2021/11/06 06:02:13;;;;;;;3.30;1.50;;;;;;;;;;5047834;28;20025;-79
2021/11/06 06:04:39;;;;;;;3.20;1.48;;;;;;;;;;5047527;28;20025;-79
2021/11/06 06:07:05;;;;;;;2.72;1.50;;;;;;;;;;5048148;28;20032;-81
2021/11/06 06:09:31;;;;;;;2.35;1.27;;;;;;;;;;5047650;28;20052;-79
2021/11/06 06:11:57;;;;;;;3.08;1.40;;;;;;;;;;5046265;28;20071;-80
2021/11/06 06:14:23;;;;;;;2.97;1.40;;;;;;;;;;5046421;28;20025;-82
2021/11/06 06:16:49;;;;;;;2.55;1.23;;;;;;;;;;5047186;28;20056;-80
2021/11/06 06:19:15;;;;;;;3.08;1.25;;;;;;;;;;5045958;28;20029;-81
2021/11/06 06:21:41;;;;;;;2.03;1.35;;;;;;;;;;5047272;28;20108;-79
2021/11/06 06:24:07;;;;;;;3.08;1.25;;;;;;;;;;5047810;28;20029;-83
2021/11/06 06:26:33;;;;;;;2.95;1.30;;;;;;;;;;5046118;28;20488;-79
2021/11/06 06:28:59;;;;;;;2.30;1.20;;;;;;;;;;5047455;28;20090;-81
2021/11/06 06:31:27;;;;;;;2.45;1.20;;;;;;;;;;5047169;28;20025;-80
2021/11/06 06:33:53;;;;;;;4.13;1.55;;;;;;;;;;5046209;28;20049;-82
2021/11/06 06:36:20;;;;;;;1.77;1.05;;;;;;;;;;5047877;28;20064;-86
2021/11/06 06:38:46;;;;;;;2.00;1.30;;;;;;;;;;5050743;28;20033;-89
2021/11/06 06:41:12;;;;;;;2.92;1.10;;;;;;;;;;5049328;28;20029;-80
2021/11/06 06:43:38;;;;;;;3.13;1.42;;;;;;;;;;5050878;28;20053;-80
2021/11/06 06:46:04;;;;;;;2.72;1.20;;;;;;;;;;5050541;28;20064;-81
2021/11/06 06:48:30;;;;;;;1.70;1.10;;;;;;;;;;5048727;28;20031;-82
2021/11/06 06:50:56;;;;;;;3.13;1.30;;;;;;;;;;5050719;28;20040;-85
2021/11/06 06:53:22;;;;;;;3.72;1.30;;;;;;;;;;5050570;28;20028;-81
2021/11/06 06:55:49;;;;;;;3.28;1.25;;;;;;;;;;5050383;28;20073;-82
2021/11/06 06:58:15;;;;;;;2.53;1.20;;;;;;;;;;5050310;28;20029;-82
2021/11/06 07:00:41;;;;;;;2.67;1.70;;;;;;;;;;5050262;28;20023;-81
2021/11/06 07:03:07;;;;;;;2.42;1.35;;;;;;;;;;5050678;28;20029;-83
2021/11/06 07:05:33;;;;;;;3.45;1.60;;;;;;;;;;5050085;28;20025;-80
2021/11/06 07:07:59;;;;;;;4.47;1.40;;;;;;;;;;5049605;28;20150;-81
2021/11/06 07:10:25;;;;;;;2.75;1.40;;;;;;;;;;5049971;28;20089;-79
2021/11/06 07:12:52;;;;;;;3.58;1.30;;;;;;;;;;5049878;28;20029;-83
2021/11/06 07:15:18;;;;;;;2.20;1.27;;;;;;;;;;5050392;28;20028;-83
2021/11/06 07:17:44;;;;;;;2.30;1.40;;;;;;;;;;5050009;28;20025;-85
2021/11/06 07:20:10;;;;;;;4.15;2.15;;;;;;;;;;5050426;28;20366;-83
2021/11/06 07:22:37;;;;;;;3.03;1.08;;;;;;;;;;5049089;28;20021;-82
2021/11/06 07:25:04;;;;;;;2.38;1.10;;;;;;;;;;5046815;28;20017;-83
2021/11/06 07:27:31;;;;;;;4.05;1.33;;;;;;;;;;5030056;28;20537;-81
2021/11/06 07:29:58;;;;;;;4.20;1.30;;;;;;;;;;5037585;28;20044;-81
2021/11/06 07:32:24;;;;;;;2.33;1.27;;;;;;;;;;5050015;28;20458;-80
2021/11/06 07:34:49;;;;;;;2.30;1.30;;;;;;;;;;5049644;28;20014;-80
2021/11/06 07:37:15;;;;;;;2.38;1.23;;;;;;;;;;5047960;28;20048;-79
2021/11/06 07:39:41;;;;;;;3.42;1.13;;;;;;;;;;5049541;28;20021;-80
2021/11/06 07:42:08;;;;;;;1.80;0.98;;;;;;;;;;5047209;28;20029;-80
2021/11/06 07:44:34;;;;;;;2.97;1.05;;;;;;;;;;5049104;28;20021;-80
2021/11/06 07:47:00;;;;;;;2.17;1.17;;;;;;;;;;5048231;28;20040;-79
2021/11/06 07:49:26;;;;;;;2.25;0.90;;;;;;;;;;5048348;28;20405;-81
2021/11/06 07:51:59;;;;;;;2.08;1.10;;;;;;;;;;5032319;28;20044;-81
2021/11/06 07:54:25;;;;;;;5.60;1.75;;;;;;;;;;5036320;28;20017;-84
2021/11/06 07:56:52;;;;;;;4.57;3.25;;;;;;;;;;5049368;28;20033;-86
2021/11/06 07:59:18;;;;;;;7.63;4.38;;;;;;;;;;5050053;28;20021;-90
2021/11/06 08:01:43;;;;;;;7.00;4.88;;;;;;;;;;5038668;28;20029;-81
2021/11/06 08:04:10;;;;;;;6.40;4.57;;;;;;;;;;5029779;28;20021;-80
2021/11/06 08:06:37;;;;;;;6.18;4.20;;;;;;;;;;5029162;28;20104;-81
2021/11/06 08:09:03;;;;;;;6.88;4.15;;;;;;;;;;5029472;28;20033;-81
2021/11/06 08:11:29;;;;;;;6.18;3.50;;;;;;;;;;5028977;28;20093;-82
2021/11/06 08:13:55;;;;;;;7.63;3.15;;;;;;;;;;5029265;28;20029;-82
2021/11/06 08:16:22;;;;;;;5.97;3.55;;;;;;;;;;5029493;28;20119;-83
2021/11/06 08:18:50;;;;;;;5.65;3.28;;;18.20;61.60;;;;;;5028959;28;20075;-81
2021/11/06 08:21:16;;;;;;;4.72;3.05;;;18.20;62.20;;;;;;5029124;28;20029;-80
2021/11/06 08:23:42;;;;;;;7.75;3.33;;;18.20;62.30;;;;;;5028988;28;20061;-80
2021/11/06 08:26:08;;;;;;;5.80;2.55;;;18.30;62.30;;;;;;5029027;28;20102;-81
2021/11/06 08:28:33;;;;;;;3.90;2.25;;;18.30;62.40;;;;;;5028789;28;20025;-82
2021/11/06 08:30:59;;;;;;;3.90;2.38;;;18.30;62.70;;;;;;5030055;28;20040;-82
2021/11/06 08:33:25;;;;;;;4.25;2.55;;;18.30;62.60;;;;;;5049050;28;20021;-87
2021/11/06 08:35:50;;;;;;;8.02;2.25;;;18.30;62.70;;;;;;5039581;28;20025;-84
2021/11/06 08:38:16;;;;;;;4.75;2.50;;;18.30;62.70;;;;;;5032218;28;20052;-80
2021/11/06 08:40:44;;;;;;;4.57;2.60;;;18.40;62.60;;;;;;5048655;28;20032;-82
2021/11/06 08:43:09;;;;;;;6.85;2.50;;;18.40;62.70;;;;;;5038214;28;20484;-81
2021/11/06 08:45:35;;;;;;;6.93;2.45;;;18.30;62.50;;;;;;5038231;28;20094;-83
2021/11/06 08:48:01;;;;;;;5.43;2.67;;;18.30;62.40;;;;;;5036662;28;20492;-85
2021/11/06 08:50:28;;;;;;;9.10;3.97;;;18.40;62.60;;;;;;5033885;28;20553;-84
2021/11/06 08:52:55;;;;;;;10.48;4.65;;;18.40;62.30;;;;;;5028368;28;20450;-86
2021/11/06 08:55:21;;;;;;;8.18;3.72;;;18.40;62.20;;;;;;5029326;28;20017;-83
2021/11/06 08:57:48;;;;;;;9.80;3.50;;;18.40;62.30;;;;;;5028740;28;20110;-85
2021/11/06 09:00:31;;;;;;;10.68;4.20;;;18.40;62.20;;;;;;5028425;28;20029;-82
2021/11/06 09:02:58;;;;;;;6.47;3.38;;;18.40;62.20;;;;;;5036420;28;20021;-83
2021/11/06 09:05:24;;;;;;;9.40;3.53;;;18.40;62.20;;;;;;5034430;28;20021;-82
2021/11/06 09:07:49;;;;;;;7.03;3.55;;;18.40;62.20;;;;;;5036892;28;20036;-84
2021/11/06 09:10:18;;;;;;;7.20;2.95;;;18.40;62.10;;;;;;5035839;28;20057;-89
2021/11/06 09:12:45;;;;;;;8.65;3.53;;;18.50;62.10;;;;;;5035954;28;20032;-84
2021/11/06 09:15:10;;;;;;;8.48;3.38;;;18.50;62.00;;;;;;5039713;28;20076;-87
2021/11/06 09:17:36;;;;;;;8.93;3.25;;;18.50;62.00;;;;;;5037450;28;20417;-86
2021/11/06 09:20:04;;;;;;;7.03;2.92;;;18.50;61.90;;;;;;5038737;28;20024;-87
2021/11/06 09:22:30;;;;;;;7.38;3.72;;;18.50;61.90;;;;;;5039882;28;20037;-82
2021/11/06 09:24:56;;;;;;;5.43;2.38;;;18.50;61.80;;;;;;5045378;28;20096;-88
2021/11/06 09:27:22;;;;;;;7.55;3.13;;;18.60;61.80;;;;;;5038492;28;20017;-85
2021/11/06 09:29:48;;;;;;;6.68;2.83;;;18.60;61.70;;;;;;5040145;28;20038;-86
2021/11/06 09:32:14;;;;;;;4.80;2.40;;;18.60;61.60;;;;;;5035757;28;20033;-82
2021/11/06 09:34:41;;;;;;;4.80;2.45;;;18.60;61.50;;;;;;5036333;28;20026;-85
2021/11/06 09:37:07;;;;;;;9.98;2.60;;;18.70;61.70;;;;;;5034788;28;20025;-81
2021/11/06 09:39:35;;;;;;;4.50;2.40;;;18.70;61.90;;;;;;5036347;28;20030;-79
2021/11/06 09:42:02;;;;;;;10.85;2.47;;;18.70;61.80;;;;;;5038593;28;20179;-83
2021/11/06 09:44:30;;;;;;;5.18;1.95;;;18.70;61.90;;;;;;5037612;28;20049;-81
2021/11/06 09:46:57;;;;;;;5.90;2.53;;;18.70;62.00;;;;;;5040054;28;20086;-81
2021/11/06 09:49:24;;;;;;;5.93;2.00;;;18.70;62.10;;;;;;5033973;28;20021;-82
2021/11/06 09:51:50;;;;;;;5.45;2.28;;;18.70;62.20;;;;;;5033352;28;20472;-82
2021/11/06 09:54:16;;;;;;;10.20;2.08;;;18.70;62.10;;;;;;5040543;28;20028;-81
2021/11/06 09:56:42;;;;;;;4.55;2.33;;;18.70;62.10;;;;;;5042967;28;20101;-81
2021/11/06 09:59:08;;;;;;;7.88;2.08;;;18.70;62.10;;;;;;5034527;28;20040;-82
2021/11/06 10:01:35;;;;;;;3.55;1.77;;;18.70;62.00;;;;;;5035833;28;20025;-81
2021/11/06 10:04:08;;;;;;;5.07;1.90;;;18.70;62.00;;;;;;5041979;28;20028;-82
2021/11/06 10:06:36;;;;;;;4.32;1.80;;;18.70;61.90;;;;;;5028943;28;20102;-81
2021/11/06 10:09:08;;;;;;;5.25;2.10;;;18.70;61.90;;;;;;5040494;28;20070;-82
2021/11/06 10:11:35;;;;;;;11.02;2.55;;;18.80;61.80;;;;;;5038889;28;20040;-81
2021/11/06 10:14:09;;;;;;;6.35;2.42;;;18.80;61.80;;;;;;5034674;28;20021;-82
2021/11/06 10:16:40;;;;;;;4.15;1.63;;;18.80;61.70;;;;;;5046914;28;20026;-82
2021/11/06 10:19:09;;;;;;;4.60;2.17;;;18.80;61.70;;;;;;5036738;28;20498;-81
2021/11/06 10:21:41;;;;;;;3.97;1.80;;;18.80;61.60;;;;;;5038999;28;20021;-82
2021/11/06 10:24:07;;;;;;;4.35;1.73;;;18.80;61.60;;;;;;5046080;28;20033;-81
2021/11/06 10:26:33;;;;;;;3.63;1.52;;;18.80;61.60;;;;;;5047212;28;20025;-82
2021/11/06 10:29:07;;;;;;;4.28;1.75;;;18.80;61.50;;;;;;5035577;28;20078;-81
2021/11/06 10:31:55;;;;;;;6.05;1.60;;;18.80;61.50;;;;;;5039094;28;20037;-83
2021/11/06 10:34:27;;;;;;;6.53;2.60;;;18.80;61.50;;;;;;5046698;28;20021;-83
2021/11/06 10:37:11;;;;;;;4.97;2.15;;;18.80;61.40;;;;;;5035733;28;20512;-82
2021/11/06 10:39:37;;;;;;;4.63;1.75;;;18.80;61.40;;;;;;5038624;28;20108;-83
2021/11/06 10:42:15;;;;;;;4.90;2.05;;;18.90;61.40;;;;;;5045291;28;20074;-82
2021/11/06 10:44:42;;;;;;;4.70;1.70;;;18.90;61.40;;;;;;5034222;28;20032;-81
2021/11/06 10:47:10;;;;;;;4.03;1.85;;;18.80;61.30;;;;;;5042597;28;20052;-81
2021/11/06 10:49:46;;;;;;;5.40;1.90;;;18.80;61.30;;;;;;5041094;28;20021;-82
2021/11/06 10:52:18;;;;;;;3.35;1.52;;;18.80;61.30;;;;;;5033899;28;20033;-81
2021/11/06 10:55:05;;;;;;;4.47;1.85;;;18.80;61.30;;;;;;5033298;28;20026;-82
2021/11/06 10:57:32;;;;;;;3.22;1.52;;;18.90;61.30;;;;;;5086047;27;20450;-82
2021/11/06 11:00:13;;;;;;;4.25;1.67;;;18.80;61.30;;;;;;5073201;27;20022;-82
2021/11/06 11:02:39;;;;;;;6.82;2.10;;;18.80;61.30;;;;;;5033244;28;20029;-82
2021/11/06 11:05:26;;;;;;;5.55;1.77;;;18.90;61.30;;;;;;5042749;28;20359;-82
2021/11/06 11:08:03;;;;;;;4.78;1.85;;;18.90;61.20;;;;;;5043159;28;20033;-82
2021/11/06 11:10:29;;;;;;;3.83;1.60;;;18.90;61.10;;;;;;5032772;28;20406;-82
2021/11/06 11:13:15;;;;;;;3.20;1.60;;;18.90;61.10;;;;;;5043985;28;20022;-82
2021/11/06 11:15:47;;;;;;;2.35;1.30;;;18.90;61.00;;;;;;5040504;28;20446;-81
2021/11/06 11:18:39;;;;;;;3.30;1.30;;;18.90;61.00;;;;;;5033443;28;20477;-83
2021/11/06 11:21:19;;;;;;;2.90;1.63;;;18.90;61.00;;;;;;5041713;28;20503;-80
2021/11/06 11:23:59;;;;;;;2.70;1.45;;;18.90;60.90;;;;;;5036765;28;20029;-81
2021/11/06 11:26:28;;;;;;;4.93;1.67;;;18.90;61.20;;;;;;5035019;28;20026;-84
2021/11/06 11:28:54;;;;;;;2.58;1.25;;;18.90;61.20;;;;;;5041412;28;20021;-85
2021/11/06 11:31:21;;;;;;;4.93;1.58;;;18.90;61.30;;;;;;5038915;28;20035;-85
2021/11/06 11:33:48;;;;;;;8.50;1.50;;;19.00;62.20;;;;;;5036139;28;20041;-83
2021/11/06 11:36:18;;;;;;;4.50;1.77;;;19.00;61.30;;;;;;5033067;28;20039;-85
2021/11/06 11:38:44;;;;;;;14.70;1.50;;;19.00;61.40;;;;;;5038235;28;20017;-85
2021/11/06 11:41:28;;;;;;;5.38;1.67;;;19.00;61.40;;;;;;5034803;28;20022;-83
2021/11/06 11:44:12;;;;;;;5.82;1.60;;;19.10;61.60;;;;;;5033901;28;20025;-83
2021/11/06 11:46:42;;;;;;;7.53;1.50;;;19.10;61.60;;;;;;5045203;28;20033;-81
2021/11/06 11:49:08;;;;;;;5.38;1.98;;;19.20;61.80;;;;;;5036644;28;20096;-82
2021/11/06 11:51:35;;;;;;;6.38;1.63;;;19.30;62.00;;;;;;5048444;28;20121;-82
2021/11/06 11:54:06;;;;;;;5.18;1.60;;;19.40;61.80;;;;;;5035778;28;20477;-82
2021/11/06 11:56:33;;;;;;;5.72;1.90;;;19.50;61.60;;;;;;5033169;28;20039;-86
2021/11/06 11:59:32;;;;;;;6.72;2.45;;;19.40;61.70;;;;;;5037502;28;20028;-87
2021/11/06 12:02:28;;;;;;;6.95;3.00;;;19.30;61.70;;;;;;5039401;28;20017;-85
2021/11/06 12:05:16;;;;;;;5.53;2.75;;;19.30;62.10;;;;;;5043688;28;20029;-83
2021/11/06 12:07:47;;;;;;;6.00;2.30;;;19.30;62.30;;;;;;5037749;28;20501;-84
2021/11/06 12:10:27;;;;;;;8.45;2.60;;;19.30;62.40;;;;;;5039083;28;20100;-84
2021/11/06 12:12:54;;;;;;;7.63;2.63;;;19.40;62.50;;;;;;5038549;28;20396;-85
2021/11/06 12:15:20;;;;;;;6.32;2.78;;;19.50;61.80;;;;;;5038240;28;20025;-83
2021/11/06 12:17:46;;;;;;;5.70;2.22;;;19.40;61.70;;;;;;5038533;28;20025;-85
2021/11/06 12:20:25;;;;;;;5.97;2.40;;;19.30;61.80;;;;;;5044432;28;20108;-84
2021/11/06 12:22:51;;;;;;;7.43;2.72;;;19.30;62.00;;;;;;5029938;28;20036;-83
2021/11/06 12:25:22;;;;;;;4.35;1.88;;;19.20;62.00;;;;;;5043039;28;20021;-85
2021/11/06 12:27:54;;;;;;;5.03;2.03;;;19.20;62.00;;;;;;5048050;28;20105;-81
2021/11/06 12:30:30;;;;;;;4.82;2.60;;;19.30;62.10;;;;;;5031921;28;20025;-88
2021/11/06 12:32:56;;;;;;;5.60;2.00;;;19.20;61.90;;;;;;5044026;28;20021;-84
2021/11/06 12:35:27;;;;;;;9.20;2.35;;;19.30;62.00;;;;;;5034812;28;20037;-86
2021/11/06 12:38:04;;;;;;;6.85;2.92;;;19.30;62.00;;;;;;5028886;28;20032;-87
2021/11/06 12:40:36;;;;;;;9.68;3.53;;;19.30;62.20;;;;;;5044510;28;20044;-82
2021/11/06 12:43:07;;;;;;;12.10;2.97;;;19.30;62.30;;;;;;5035306;28;20025;-81
2021/11/06 12:45:33;;;;;;;12.35;2.83;;;19.30;62.30;;;;;;5037195;28;20038;-87
2021/11/06 12:48:17;;;;;;;5.32;2.20;;;19.30;62.30;;;;;;5042738;28;20047;-84
2021/11/06 12:51:06;;;;;;;8.65;2.83;;;19.40;62.30;;;;;;5032360;28;20065;-82
2021/11/06 12:53:46;;;;;;;9.10;2.30;;;19.40;62.40;;;;;;5037257;28;20025;-90
2021/11/06 12:56:18;;;;;;;15.73;2.95;;;19.50;62.50;;;;;;5030446;28;20029;-86
2021/11/06 12:58:47;;;;;;;8.82;2.17;;;19.40;62.50;;;;;;5031157;28;20433;-86
2021/11/06 13:01:27;;;;;;;10.43;2.80;;;19.40;63.20;;;;;;5040300;28;20029;-86
2021/11/06 13:03:53;;;;;;;7.63;1.90;;;19.60;64.60;;;;;;5041992;28;20025;-89
2021/11/06 13:06:26;;;;;;;12.80;2.70;;;19.60;63.90;;;;;;5030815;28;20413;-86
2021/11/06 13:09:05;;;;;;;10.98;2.05;;;19.60;64.00;;;;;;5033238;28;20069;-84
2021/11/06 13:11:52;;;;;;;16.40;2.25;;;19.60;64.20;;;;;;5036534;28;20033;-87
2021/11/06 13:14:53;;;;;;;9.80;2.58;;;19.70;64.20;;;;;;5037951;28;20029;-88
2021/11/06 13:17:30;;;;;;;7.30;2.13;;;19.70;64.20;;;;;;5038340;28;20051;-92
2021/11/06 13:20:06;;;;;;;7.90;1.92;;;19.60;64.60;;;;;;5035969;28;20021;-89
2021/11/06 13:22:31;;;;;;;8.65;1.52;;;19.60;64.40;;;;;;5034458;28;20112;-90
2021/11/06 13:25:03;;;;;;;5.85;1.85;;;19.50;64.70;;;;;;5035407;28;20097;-88
2021/11/06 13:27:56;;;;;;;10.25;1.65;;;19.60;64.90;;;;;;5036365;28;20041;-85
2021/11/06 13:30:38;;;;;;;10.35;1.70;;;19.50;64.90;;;;;;5043610;28;20033;-85
2021/11/06 13:33:04;;;;;;;10.00;2.58;;;19.50;66.10;;;;;;5034901;28;20055;-88
2021/11/06 13:35:39;;;;;;;6.55;1.83;;;19.50;65.50;;;;;;5048470;28;20120;-86
2021/11/06 13:38:13;;;;;;;7.15;1.90;;;19.50;65.10;;;;;;5032288;28;20029;-87
2021/11/06 13:40:51;;;;;;;8.35;1.80;;;19.50;65.70;;;;;;5030409;28;20065;-84
2021/11/06 13:43:24;;;;;;;8.98;2.05;;;19.40;65.60;;;;;;5047027;28;20021;-87
2021/11/06 13:46:04;;;;;;;9.50;1.63;;;19.50;66.00;;;;;;5038501;28;20026;-86
2021/11/06 13:48:33;;;;;;;6.57;1.95;;;19.40;66.00;;;;;;5039978;28;20029;-86
2021/11/06 13:51:16;;;;;;;5.97;1.67;;;19.40;66.70;;;;;;5046813;28;20125;-86
2021/11/06 13:54:03;;;;;;;6.55;1.70;;;19.40;66.40;;;;;;5041254;28;20033;-85
2021/11/06 13:56:46;;;;;;;11.15;2.53;;;19.40;66.50;;;;;;5047194;28;20064;-86
2021/11/06 13:59:16;;;;;;;4.45;1.65;;;19.40;66.50;;;;;;5038436;28;20025;-86